Time;durP1;ratioP1;P1;durP2;ratioP2;P2;SDS_P1;SDS_P2;PMS_P1;PMS_P2;Temp;Humidity;BMP_temperature;BMP_pressure;BME280_temperature;BME280_humidity;BME280_pressure;Samples;Min_cycle;Max_cycle;Signal;HPM_P1;HPM_P2
2022/09/15 10:04:43;;;;;;;2.40;1.80;;;;;;;;;;5123546;27;20508;-79
2022/09/15 10:07:10;;;;;;;3.03;2.20;;;;;;;;;;5116381;27;20198;-78
2022/09/15 10:09:37;;;;;;;5.50;2.40;;;;;;;;;;5119507;27;20600;-77
2022/09/15 10:12:04;;;;;;;3.50;2.40;;;;;;;;;;5123150;27;20708;-78
2022/09/15 10:14:32;;;;;;;3.97;2.60;;;;;;;;;;5123643;27;20183;-80
2022/09/15 10:17:00;;;;;;;4.67;2.57;;;;;;;;;;5122854;27;20204;-80
2022/09/15 10:19:27;;;;;;;4.70;2.50;;;;;;;;;;5123607;27;20200;-77
2022/09/15 10:21:54;;;;;;;5.00;2.70;;;;;;;;;;5117695;27;20190;-77
2022/09/15 10:24:28;;;;;;;4.83;2.80;;;;;;;;;;5123112;27;20267;-77
2022/09/15 10:27:15;;;;;;;4.10;3.10;;;;;;;;;;5122939;27;20209;-78
2022/09/15 10:29:41;;;;;;;4.20;2.83;;;;;;;;;;5121270;27;20175;-78
2022/09/15 10:32:20;;;;;;;6.67;3.07;;;;;;;;;;5119715;27;20190;-79
2022/09/15 10:34:47;;;;;;;3.87;2.63;;;;;;;;;;5116871;27;20176;-79
2022/09/15 10:37:43;;;;;;;6.50;2.60;;;;;;;;;;5122754;27;20260;-79
2022/09/15 10:40:29;;;;;;;6.47;2.63;;;;;;;;;;5104877;27;20206;-79
2022/09/15 10:43:04;;;;;;;4.53;2.57;;;;;;;;;;5118353;27;20246;-78
2022/09/15 10:45:42;;;;;;;3.20;2.17;;;;;;;;;;5124644;27;20990;-78
2022/09/15 10:48:27;;;;;;;5.00;2.57;;;;;;;;;;5122220;27;20187;-78
2022/09/15 10:50:56;;;;;;;3.23;2.67;;;;;;;;;;5122854;27;20197;-79
2022/09/15 10:53:22;;;;;;;3.47;2.57;;;;;;;;;;5122412;27;20282;-79
2022/09/15 10:55:55;;;;;;;3.47;2.40;;;;;;;;;;5124559;27;20270;-79
2022/09/15 10:58:40;;;;;;;3.10;2.17;;;;;;;;;;5126815;27;20709;-78
2022/09/15 11:01:12;;;;;;;4.63;2.20;;;;;;;;;;5128963;27;20195;-78
2022/09/15 11:03:50;;;;;;;3.97;2.20;;;;;;;;;;5123098;27;20210;-78
2022/09/15 11:06:22;;;;;;;2.97;1.83;;;;;;;;;;5123913;27;20191;-76
2022/09/15 11:08:51;;;;;;;3.00;2.00;;;;;;;;;;5122090;27;20783;-78
2022/09/15 11:11:36;;;;;;;3.60;2.17;;;;;;;;;;5101461;27;20365;-76
2022/09/15 11:14:09;;;;;;;3.60;2.20;;;;;;;;;;5118577;27;20248;-76
2022/09/15 11:16:36;;;;;;;2.83;2.00;;;;;;;;;;5110050;27;20272;-76
2022/09/15 11:19:09;;;;;;;3.67;1.80;;;;;;;;;;5107018;27;20198;-76
2022/09/15 11:21:47;;;;;;;3.33;1.83;;;;;;;;;;5110389;27;20985;-76
2022/09/15 11:24:31;;;;;;;2.97;1.90;;;;;;;;;;5112534;27;20207;-77
2022/09/15 11:27:00;;;;;;;3.20;2.00;;;;;;;;;;5105642;27;20192;-77
2022/09/15 11:29:37;;;;;;;2.40;1.77;;;;;;;;;;5107850;27;20176;-76
2022/09/15 11:32:10;;;;;;;4.17;1.90;;;;;;;;;;5107360;27;20905;-77
2022/09/15 11:34:43;;;;;;;3.57;2.00;;;;;;;;;;5104137;27;20613;-76
2022/09/15 11:37:24;;;;;;;2.47;1.83;;;;;;;;;;5109568;27;20298;-75
2022/09/15 11:40:00;;;;;;;2.90;2.00;;;;;;;;;;5106489;27;20187;-76
2022/09/15 11:42:31;;;;;;;2.57;1.80;;;;;;;;;;5109559;27;20258;-76
2022/09/15 11:44:59;;;;;;;2.70;1.93;;;;;;;;;;5092270;28;20202;-78
2022/09/15 11:47:25;;;;;;;4.07;2.10;;;;;;;;;;5108876;27;20206;-77
2022/09/15 11:50:03;;;;;;;3.33;2.50;;;;;;;;;;5110552;27;20635;-77
2022/09/15 11:52:47;;;;;;;4.03;2.40;;;;;;;;;;5107051;27;20225;-77
2022/09/15 11:55:18;;;;;;;3.90;2.57;;;;;;;;;;5109617;27;20229;-76
2022/09/15 11:57:54;;;;;;;2.83;2.40;;;;;;;;;;5110406;27;20226;-76
2022/09/15 12:00:20;;;;;;;6.03;2.47;;;;;;;;;;5109862;27;20183;-77
2022/09/15 12:03:04;;;;;;;4.17;2.50;;;;;;;;;;5108529;27;20269;-76
2022/09/15 12:05:41;;;;;;;3.90;2.70;;;;;;;;;;5110238;27;20257;-76
2022/09/15 12:08:20;;;;;;;4.07;2.50;;;;;;;;;;5110250;27;20215;-76
2022/09/15 12:10:51;;;;;;;4.07;2.43;;;;;;;;;;5106696;27;20176;-76
2022/09/15 12:13:18;;;;;;;4.23;2.47;;;;;;;;;;5109060;27;20168;-78
2022/09/15 12:15:47;;;;;;;4.30;2.50;;;;;;;;;;5107216;28;20172;-77
2022/09/15 12:18:18;;;;;;;2.77;2.50;;;;;;;;;;5089387;28;20199;-76
2022/09/15 12:21:03;;;;;;;6.70;2.50;;;;;;;;;;5106122;28;20178;-77
2022/09/15 12:23:33;;;;;;;3.73;2.87;;;;;;;;;;5107569;28;20232;-76
2022/09/15 12:26:05;;;;;;;4.37;3.47;;;;;;;;;;5103880;28;20252;-77
2022/09/15 12:28:34;;;;;;;3.80;2.97;;;;;;;;;;5104196;27;20182;-77
2022/09/15 12:31:11;;;;;;;3.83;3.00;;;;;;;;;;5105223;28;20277;-77
2022/09/15 12:33:53;;;;;;;5.33;3.70;;;;;;;;;;5105552;28;20266;-76
2022/09/15 12:36:38;;;;;;;6.17;3.50;;;;;;;;;;5101079;28;20201;-76
2022/09/15 12:39:19;;;;;;;4.17;3.37;;;;;;;;;;5104686;28;20245;-76
2022/09/15 12:41:49;;;;;;;4.43;3.10;;;;;;;;;;5107182;27;20183;-76
2022/09/15 12:44:22;;;;;;;3.40;3.10;;;;;;;;;;5102941;27;20212;-76
2022/09/15 12:46:55;;;;;;;4.87;3.27;;;;;;;;;;5106568;28;20575;-76
2022/09/15 12:49:27;;;;;;;4.73;3.70;;;;;;;;;;5107693;28;20184;-77
2022/09/15 12:51:54;;;;;;;6.00;3.80;;;;;;;;;;5107400;28;20172;-77
2022/09/15 12:54:26;;;;;;;4.30;3.43;;;;;;;;;;5104866;28;20219;-77
2022/09/15 12:56:53;;;;;;;7.07;5.23;;;;;;;;;;5112391;27;20226;-77
2022/09/15 12:59:24;;;;;;;5.93;5.20;;;;;;;;;;5107063;27;20207;-77
2022/09/15 13:01:51;;;;;;;5.53;5.03;;;;;;;;;;5108406;28;20175;-77
2022/09/15 13:04:26;;;;;;;6.00;4.80;;;;;;;;;;5103657;28;20580;-76
2022/09/15 13:07:12;;;;;;;6.13;5.40;;;;;;;;;;5105573;28;20246;-79
2022/09/15 13:09:58;;;;;;;5.53;5.03;;;;;;;;;;5092339;28;20184;-78
2022/09/15 13:12:35;;;;;;;5.67;4.90;;;;;;;;;;5106827;28;20332;-78
2022/09/15 13:15:03;;;;;;;7.90;6.10;;;;;;;;;;5109614;28;20190;-78
2022/09/15 13:17:30;;;;;;;7.07;5.23;;;;;;;;;;5113497;27;20758;-78
2022/09/15 13:19:58;;;;;;;7.07;5.50;;;;;;;;;;5111088;27;20269;-78
2022/09/15 13:22:34;;;;;;;11.10;6.43;;;;;;;;;;5118401;27;20649;-78
2022/09/15 13:25:03;;;;;;;5.20;4.70;;;;;;;;;;5107722;28;20239;-77
2022/09/15 13:27:38;;;;;;;5.00;4.50;;;;;;;;;;5104079;28;20206;-77
2022/09/15 13:30:16;;;;;;;5.77;5.20;;;;;;;;;;5112223;27;20186;-81
2022/09/15 13:32:58;;;;;;;5.80;5.30;;;;;;;;;;5106380;28;20626;-80
2022/09/15 13:35:37;;;;;;;5.30;4.80;;;;;;;;;;5105538;28;20201;-76
2022/09/15 13:38:24;;;;;;;5.93;5.10;;;;;;;;;;5096431;28;20218;-76
2022/09/15 13:41:09;;;;;;;5.60;4.67;;;;;;;;;;5105302;28;20187;-76
2022/09/15 13:43:56;;;;;;;5.80;4.87;;;;;;;;;;5105708;28;20922;-76
2022/09/15 13:46:22;;;;;;;7.00;5.40;;;;;;;;;;5085801;28;20212;-76
2022/09/15 13:49:06;;;;;;;6.57;5.20;;;;;;;;;;5105722;27;20186;-76
2022/09/15 13:51:33;;;;;;;6.00;5.40;;;;;;;;;;5107430;28;20254;-76
2022/09/15 13:54:02;;;;;;;5.00;4.60;;;;;;;;;;5106720;27;20187;-76
2022/09/15 13:56:29;;;;;;;6.70;5.23;;;;;;;;;;5106664;28;20217;-76
2022/09/15 13:59:01;;;;;;;6.33;4.30;;;;;;;;;;5107607;28;20658;-76
2022/09/15 14:01:27;;;;;;;6.53;4.93;;;;;;;;;;5105040;28;20699;-76
2022/09/15 14:04:06;;;;;;;4.90;4.40;;;;;;;;;;5104134;28;20203;-76
2022/09/15 14:06:32;;;;;;;5.87;4.30;;;;;;;;;;5105670;28;20207;-76
2022/09/15 14:09:02;;;;;;;4.87;4.30;;;;;;;;;;5106180;28;20251;-76
2022/09/15 14:11:30;;;;;;;4.27;3.97;;;;;;;;;;5105177;28;20272;-76
2022/09/15 14:13:58;;;;;;;4.40;4.00;;;;;;;;;;5105664;28;20186;-76
2022/09/15 14:16:24;;;;;;;4.73;4.00;;;;;;;;;;5104478;28;20204;-76
2022/09/15 14:18:51;;;;;;;4.23;3.83;;;;;;;;;;5103052;28;20177;-76
2022/09/15 14:21:19;;;;;;;4.27;3.87;;;;;;;;;;5105896;28;20185;-76
2022/09/15 14:23:46;;;;;;;4.30;3.90;;;;;;;;;;5106070;28;20201;-76
2022/09/15 14:26:13;;;;;;;4.20;3.80;;;;;;;;;;5105861;28;20191;-76
2022/09/15 14:28:40;;;;;;;4.60;3.70;;;;;;;;;;5105369;28;20209;-76
2022/09/15 14:31:07;;;;;;;3.90;3.50;;;;;;;;;;5105930;28;20631;-76
2022/09/15 14:33:37;;;;;;;4.40;4.00;;;;;;;;;;5106209;28;20792;-77
2022/09/15 14:36:11;;;;;;;4.20;3.80;;;;;;;;;;5102412;28;20181;-77
2022/09/15 14:38:38;;;;;;;6.00;3.90;;;;;;;;;;5104625;28;20210;-77
2022/09/15 14:41:04;;;;;;;3.87;3.40;;;;;;;;;;5106276;28;20184;-76
2022/09/15 14:43:34;;;;;;;4.00;3.70;;;;;;;;;;5105002;28;20239;-76
2022/09/15 14:46:17;;;;;;;3.80;3.40;;;;;;;;;;5105116;28;20208;-76
2022/09/15 14:48:44;;;;;;;3.67;3.20;;;;;;;;;;5105148;28;20186;-76
2022/09/15 14:51:32;;;;;;;3.60;3.27;;;;;;;;;;5106260;27;20204;-76
2022/09/15 14:53:59;;;;;;;3.47;3.13;;;;;;;;;;5107678;28;20267;-76
2022/09/15 14:56:29;;;;;;;3.70;3.40;;;;;;;;;;5109542;27;20202;-76
2022/09/15 14:58:57;;;;;;;5.00;3.47;;;;;;;;;;5108907;28;20204;-76
2022/09/15 15:01:35;;;;;;;5.30;3.20;;;;;;;;;;5108715;28;20253;-76
2022/09/15 15:04:08;;;;;;;3.63;3.10;;;;;;;;;;5108376;27;20213;-76
2022/09/15 15:06:50;;;;;;;3.50;3.20;;;;;;;;;;5104500;28;20203;-76
2022/09/15 15:09:30;;;;;;;5.67;3.33;;;;;;;;;;5107798;27;20248;-76
2022/09/15 15:11:58;;;;;;;3.97;3.30;;;;;;;;;;5109517;27;20210;-76
2022/09/15 15:14:24;;;;;;;4.03;3.50;;;;;;;;;;5110024;27;20183;-76
2022/09/15 15:16:52;;;;;;;5.77;3.67;;;;;;;;;;5109588;27;20196;-76
2022/09/15 15:19:38;;;;;;;3.67;3.30;;;;;;;;;;5107732;28;20176;-76
2022/09/15 15:22:12;;;;;;;4.97;3.00;;;;;;;;;;5108799;28;20200;-76
2022/09/15 15:24:47;;;;;;;3.43;3.07;;;;;;;;;;5108161;28;20210;-76
2022/09/15 15:27:37;;;;;;;4.73;2.80;;;;;;;;;;5106288;28;20214;-76
2022/09/15 15:30:22;;;;;;;3.90;2.93;;;;;;;;;;5109402;27;20180;-76
2022/09/15 15:32:48;;;;;;;4.17;2.70;;;;;;;;;;5107327;27;20185;-76
2022/09/15 15:35:16;;;;;;;3.40;3.10;;;;;;;;;;5107200;28;20193;-75
2022/09/15 15:37:43;;;;;;;4.43;3.33;;;;;;;;;;5106528;28;20304;-76
2022/09/15 15:40:21;;;;;;;3.43;2.90;;;;;;;;;;5106901;28;20185;-76
2022/09/15 15:43:14;;;;;;;3.27;2.97;;;;;;;;;;5107735;28;20207;-76
2022/09/15 15:45:56;;;;;;;4.67;3.10;;;;;;;;;;5101792;28;20202;-76
2022/09/15 15:48:23;;;;;;;3.53;2.93;;;;;;;;;;5107390;28;20238;-76
2022/09/15 15:50:50;;;;;;;3.23;2.30;;;;;;;;;;5108940;27;20254;-76
2022/09/15 15:53:16;;;;;;;2.73;2.47;;;;;;;;;;5107768;27;20197;-76
2022/09/15 15:55:43;;;;;;;3.23;2.47;;;;;;;;;;5108304;27;20187;-76
2022/09/15 15:58:12;;;;;;;3.30;2.90;;;;;;;;;;5105725;27;20243;-76
2022/09/15 16:00:43;;;;;;;3.70;2.60;;;;;;;;;;5107639;27;20237;-76
2022/09/15 16:03:09;;;;;;;3.37;2.60;;;;;;;;;;5107783;28;21483;-76
2022/09/15 16:05:36;;;;;;;3.73;2.20;;;;;;;;;;5106301;28;20252;-76
2022/09/15 16:08:05;;;;;;;2.73;2.43;;;;;;;;;;5107647;27;20249;-76
2022/09/15 16:10:38;;;;;;;2.53;2.33;;;;;;;;;;5107938;27;20190;-76
2022/09/15 16:13:04;;;;;;;4.00;2.70;;;;;;;;;;5107011;28;20198;-76
2022/09/15 16:15:30;;;;;;;3.23;2.50;;;;;;;;;;5106277;28;20216;-76
2022/09/15 16:17:56;;;;;;;2.63;2.43;;;;;;;;;;5107835;27;20276;-76
2022/09/15 16:20:23;;;;;;;2.40;2.20;;;;;;;;;;5106006;28;20180;-76
2022/09/15 16:22:50;;;;;;;2.90;2.30;;;;;;;;;;5107356;28;20244;-76
2022/09/15 16:25:17;;;;;;;2.90;2.50;;;;;;;;;;5105331;28;20170;-76
2022/09/15 16:27:43;;;;;;;4.23;2.70;;;;;;;;;;5106108;28;20288;-76
2022/09/15 16:30:12;;;;;;;2.67;2.47;;;;;;;;;;5107159;28;20559;-76
2022/09/15 16:32:40;;;;;;;4.10;2.83;;;;;;;;;;5106681;27;20192;-76
2022/09/15 16:35:28;;;;;;;4.17;2.53;;;;;;;;;;5105238;27;20940;-76
2022/09/15 16:37:55;;;;;;;3.17;2.70;;;;;;;;;;5104213;28;21450;-76
2022/09/15 16:40:21;;;;;;;2.60;2.40;;;;;;;;;;5106604;27;21011;-76
2022/09/15 16:42:47;;;;;;;2.70;2.40;;;;;;;;;;5106708;28;20192;-76
2022/09/15 16:45:25;;;;;;;2.40;2.20;;;;;;;;;;5107082;28;20178;-76
2022/09/15 16:47:51;;;;;;;2.50;2.30;;;;;;;;;;5105422;28;20196;-75
2022/09/15 16:50:17;;;;;;;4.50;2.30;;;;;;;;;;5106550;27;20228;-75
2022/09/15 16:52:43;;;;;;;4.40;2.10;;;;;;;;;;5100949;27;20271;-77
2022/09/15 16:55:16;;;;;;;2.80;2.20;;;;;;;;;;5108683;27;20197;-77
2022/09/15 16:57:42;;;;;;;3.07;2.20;;;;;;;;;;5105041;27;20187;-77
2022/09/15 17:00:08;;;;;;;2.60;2.40;;;;;;;;;;5106765;27;20179;-77
2022/09/15 17:02:35;;;;;;;2.17;1.97;;;;;;;;;;5104797;27;20192;-77
2022/09/15 17:05:01;;;;;;;2.50;2.20;;;;;;;;;;5104241;27;20172;-77
2022/09/15 17:07:27;;;;;;;2.40;2.20;;;;;;;;;;5105446;28;20203;-77
2022/09/15 17:09:53;;;;;;;3.30;2.10;;;;;;;;;;5112085;27;20184;-79
2022/09/15 17:12:20;;;;;;;3.03;2.50;;;;;;;;;;5108950;27;20407;-80
2022/09/15 17:14:46;;;;;;;2.93;2.40;;;;;;;;;;5106519;28;20259;-74
2022/09/15 17:17:25;;;;;;;3.20;2.00;;;;;;;;;;5114101;27;20199;-79
2022/09/15 17:19:51;;;;;;;2.70;2.43;;;;;;;;;;5105125;28;20210;-78
2022/09/15 17:22:18;;;;;;;2.83;2.30;;;;;;;;;;5112595;27;20168;-81
2022/09/15 17:24:44;;;;;;;3.00;2.30;;;;;;;;;;5089732;28;20271;-75
2022/09/15 17:27:10;;;;;;;2.60;2.40;;;;;;;;;;5107409;27;20278;-75
2022/09/15 17:29:37;;;;;;;3.73;2.53;;;;;;;;;;5105781;28;20204;-76
2022/09/15 17:32:03;;;;;;;2.60;2.40;;;;;;;;;;5102579;28;20264;-78
2022/09/15 17:34:29;;;;;;;4.03;2.77;;;;;;;;;;5099150;28;20684;-78
2022/09/15 17:36:55;;;;;;;3.13;2.67;;;;;;;;;;5098708;27;20208;-76
2022/09/15 17:39:21;;;;;;;3.70;2.87;;;;;;;;;;5099786;28;20245;-79
2022/09/15 17:41:47;;;;;;;4.37;2.97;;;;;;;;;;5115164;27;20180;-79
2022/09/15 17:44:14;;;;;;;4.57;2.73;;;;;;;;;;5107666;28;20214;-80
2022/09/15 17:46:40;;;;;;;4.97;2.93;;;;;;;;;;5104091;28;20207;-77
2022/09/15 17:49:06;;;;;;;4.23;2.70;;;;;;;;;;5107944;28;20182;-78
2022/09/15 17:51:32;;;;;;;4.93;2.80;;;;;;;;;;5107909;28;20231;-80
2022/09/15 17:53:59;;;;;;;4.20;2.93;;;;;;;;;;5110655;28;20178;-79
2022/09/15 17:56:25;;;;;;;4.90;2.83;;;;;;;;;;5105324;28;20879;-77
2022/09/15 17:58:51;;;;;;;4.20;3.10;;;;;;;;;;5068370;28;20270;-79
2022/09/15 18:01:18;;;;;;;3.87;2.70;;;;;;;;;;5100969;28;20183;-79
2022/09/15 18:03:45;;;;;;;4.53;3.70;;;;;;;;;;5097964;28;20215;-77
2022/09/15 18:06:12;;;;;;;7.93;4.60;;;;;;;;;;5099379;28;20195;-79
2022/09/15 18:08:38;;;;;;;10.77;5.47;;;;;;;;;;5105219;28;20176;-77
2022/09/15 18:11:05;;;;;;;7.80;6.00;;;;;;;;;;5106693;27;20180;-78
2022/09/15 18:13:32;;;;;;;8.37;5.47;;;;;;;;;;5100273;28;20183;-78
2022/09/15 18:16:05;;;;;;;11.00;5.83;;;;;;;;;;5106487;28;20184;-78
2022/09/15 18:18:31;;;;;;;8.77;6.00;;;;;;;;;;5098935;28;20188;-79
2022/09/15 18:20:58;;;;;;;11.53;7.10;;;;;;;;;;5103489;28;20207;-77
2022/09/15 18:23:25;;;;;;;10.67;6.60;;;;;;;;;;5103471;28;20211;-77
2022/09/15 18:25:51;;;;;;;14.40;6.97;;;;;;;;;;5110276;27;20180;-77
2022/09/15 18:28:17;;;;;;;11.80;7.13;;;;;;;;;;5109749;27;20177;-77
2022/09/15 18:30:45;;;;;;;11.83;7.17;;;;;;;;;;5102953;27;20185;-77
2022/09/15 18:33:13;;;;;;;16.20;7.93;;;;;;;;;;5099827;28;20742;-77
2022/09/15 18:35:40;;;;;;;15.93;8.40;;;;;;;;;;5108649;28;20237;-77
2022/09/15 18:38:06;;;;;;;14.97;9.43;;;;;;;;;;5106373;27;20775;-77
2022/09/15 18:40:33;;;;;;;15.00;8.40;;;;;;;;;;5108050;27;20270;-77
2022/09/15 18:42:59;;;;;;;15.10;8.87;;;;;;;;;;5112488;27;20855;-79
2022/09/15 18:45:25;;;;;;;15.77;8.90;;;;;;;;;;5097518;28;20223;-82
2022/09/15 18:47:52;;;;;;;18.23;8.70;;;;;;;;;;5094173;28;20207;-80
2022/09/15 18:50:19;;;;;;;16.17;7.93;;;;;;;;;;5113115;27;20180;-84
2022/09/15 18:52:46;;;;;;;16.77;8.50;;;;;;;;;;5114873;27;20180;-80
2022/09/15 18:55:14;;;;;;;14.23;7.50;;;;;;;;;;5108125;27;20183;-82
2022/09/15 18:57:40;;;;;;;13.27;6.87;;;;;;;;;;5110555;28;20251;-77
2022/09/15 19:00:11;;;;;;;11.87;6.77;;;;;;;;;;5111565;27;20710;-83
2022/09/15 19:02:38;;;;;;;10.00;5.67;;;;;;;;;;5105518;27;20698;-80
2022/09/15 19:05:04;;;;;;;8.23;4.90;;;;;;;;;;5112222;27;20180;-79
2022/09/15 19:07:30;;;;;;;7.63;4.43;;;;;;;;;;5108148;27;20215;-81
2022/09/15 19:09:57;;;;;;;6.20;4.13;;;;;;;;;;5106658;28;20553;-81
2022/09/15 19:12:23;;;;;;;5.17;4.10;;;;;;;;;;5082183;28;20348;-82
2022/09/15 19:14:49;;;;;;;3.90;3.50;;;;;;;;;;5112890;27;20179;-81
2022/09/15 19:17:15;;;;;;;3.53;3.20;;;;;;;;;;5114033;27;20850;-80
2022/09/15 19:19:42;;;;;;;4.17;3.23;;;;;;;;;;5111838;28;20191;-80
2022/09/15 19:22:09;;;;;;;3.80;3.50;;;;;;;;;;5106053;27;20878;-81
2022/09/15 19:24:35;;;;;;;4.27;3.60;;;;;;;;;;5108974;28;20425;-82
2022/09/15 19:27:03;;;;;;;3.80;3.20;;;;;;;;;;5112439;27;20206;-82
2022/09/15 19:29:33;;;;;;;3.17;2.93;;;;;;;;;;5107576;28;20265;-82
2022/09/15 19:32:07;;;;;;;5.23;3.80;;;;;;;;;;5099645;27;20177;-82
2022/09/15 19:34:34;;;;;;;4.27;3.47;;;;;;;;;;5109669;27;20187;-82
2022/09/15 19:37:00;;;;;;;5.07;3.40;;;;;;;;;;5109384;27;20272;-82
2022/09/15 19:39:26;;;;;;;4.17;3.17;;;;;;;;;;5133240;27;20187;-82
2022/09/15 19:41:52;;;;;;;4.70;3.30;;;;;;;;;;5114289;27;20188;-82
2022/09/15 19:44:19;;;;;;;4.70;3.33;;;;;;;;;;5106783;28;20239;-82
2022/09/15 19:46:45;;;;;;;5.73;3.40;;;;;;;;;;5107901;27;20228;-82
2022/09/15 19:49:11;;;;;;;4.90;3.83;;;;;;;;;;5106583;27;20199;-82
2022/09/15 19:51:38;;;;;;;5.10;4.13;;;;;;;;;;5093267;27;20682;-82
2022/09/15 19:54:04;;;;;;;5.67;4.40;;;;;;;;;;5107399;27;20185;-82
2022/09/15 19:56:30;;;;;;;5.97;4.07;;;;;;;;;;5086045;28;20224;-81
2022/09/15 19:58:58;;;;;;;6.17;3.90;;;;;;;;;;5104207;27;20249;-82
2022/09/15 20:01:25;;;;;;;5.40;3.70;;;;;;;;;;5101526;27;20509;-81
2022/09/15 20:03:55;;;;;;;6.03;4.10;;;;;;;;;;5112453;27;20200;-82
2022/09/15 20:06:22;;;;;;;6.43;4.47;;;;;;;;;;5106348;27;20207;-82
2022/09/15 20:08:51;;;;;;;5.03;4.13;;;;;;;;;;5085957;28;20168;-81
2022/09/15 20:11:18;;;;;;;6.00;4.00;;;;;;;;;;5104649;27;20179;-80
2022/09/15 20:13:45;;;;;;;7.10;3.77;;;;;;;;;;5106350;27;20192;-81
2022/09/15 20:16:16;;;;;;;5.83;4.27;;;;;;;;;;5100971;27;20208;-82
2022/09/15 20:18:45;;;;;;;4.10;3.77;;;;;;;;;;5110403;27;20236;-81
2022/09/15 20:21:12;;;;;;;4.53;3.80;;;;;;;;;;5112790;27;20263;-82
2022/09/15 20:23:38;;;;;;;7.60;3.80;;;;;;;;;;5107408;27;20208;-81
2022/09/15 20:26:06;;;;;;;6.60;4.10;;;;;;;;;;5098367;28;20191;-82
2022/09/15 20:28:32;;;;;;;3.60;3.30;;;;;;;;;;5111731;27;20611;-81
2022/09/15 20:31:05;;;;;;;6.80;3.70;;;;;;;;;;5111234;27;20527;-81
2022/09/15 20:33:32;;;;;;;3.93;3.23;;;;;;;;;;5106313;27;20200;-81
2022/09/15 20:36:02;;;;;;;3.13;2.83;;;;;;;;;;5112512;27;20857;-81
2022/09/15 20:38:29;;;;;;;3.00;2.70;;;;;;;;;;5122517;27;20179;-81
2022/09/15 20:40:56;;;;;;;4.03;2.97;;;;;;;;;;5095789;27;20195;-82
2022/09/15 20:43:22;;;;;;;3.43;2.80;;;;;;;;;;5097088;27;20203;-82
2022/09/15 20:45:55;;;;;;;4.20;2.90;;;;;;;;;;5113373;27;20180;-82
2022/09/15 20:48:21;;;;;;;4.07;3.00;;;;;;;;;;5104515;27;20845;-81
2022/09/15 20:50:48;;;;;;;3.43;3.00;;;;;;;;;;5102456;27;20179;-81
2022/09/15 20:53:14;;;;;;;4.27;3.10;;;;;;;;;;5111732;27;20203;-81
2022/09/15 20:55:40;;;;;;;3.97;3.03;;;;;;;;;;5105626;27;20206;-82
2022/09/15 20:58:06;;;;;;;3.87;3.00;;;;;;;;;;5112721;27;20218;-81
2022/09/15 21:00:33;;;;;;;4.57;2.90;;;;;;;;;;5081932;28;20919;-82
2022/09/15 21:02:59;;;;;;;3.00;2.70;;;;;;;;;;5108809;28;20259;-81
2022/09/15 21:05:25;;;;;;;4.53;2.83;;;;;;;;;;5090879;28;20180;-81
2022/09/15 21:07:51;;;;;;;4.43;3.03;;;;;;;;;;5113458;27;20224;-81
2022/09/15 21:10:17;;;;;;;5.00;3.00;;;;;;;;;;5110238;27;20320;-81
2022/09/15 21:12:44;;;;;;;6.90;3.07;;;;;;;;;;5105948;27;20259;-81
2022/09/15 21:15:11;;;;;;;4.10;2.93;;;;;;;;;;5072944;27;20176;-82
2022/09/15 21:17:37;;;;;;;3.30;3.00;;;;;;;;;;5104042;27;20191;-82
2022/09/15 21:20:03;;;;;;;6.20;2.90;;;;;;;;;;5115671;22;20845;-75
2022/09/15 21:22:30;;;;;;;5.20;3.07;;;;;;;;;;5067468;28;20624;-74
2022/09/15 21:24:56;;;;;;;4.53;2.83;;;;;;;;;;5058386;28;20310;-75
2022/09/15 21:27:25;;;;;;;3.17;2.87;;;;;;;;;;5064487;28;20181;-75
2022/09/15 21:29:52;;;;;;;6.57;2.80;;;;;;;;;;5075260;28;20208;-74
2022/09/15 21:32:18;;;;;;;4.80;3.10;;;;;;;;;;5081126;28;20267;-75
2022/09/15 21:34:46;;;;;;;6.03;3.10;;;;;;;;;;5080817;28;20418;-75
2022/09/15 21:37:12;;;;;;;3.60;3.30;;;;;;;;;;5081346;28;20284;-74
2022/09/15 21:39:39;;;;;;;5.43;3.10;;;;;;;;;;5084538;28;20204;-75
2022/09/15 21:42:05;;;;;;;3.57;2.90;;;;;;;;;;5082164;28;20291;-75
2022/09/15 21:44:32;;;;;;;3.90;3.10;;;;;;;;;;5082118;28;20215;-76
2022/09/15 21:47:00;;;;;;;4.03;2.90;;;;;;;;;;5078623;28;20173;-75
2022/09/15 21:49:26;;;;;;;3.60;2.80;;;;;;;;;;5082589;28;20310;-74
2022/09/15 21:51:53;;;;;;;3.63;3.13;;;;;;;;;;5081142;28;20184;-76
2022/09/15 21:54:19;;;;;;;3.50;2.80;;;;;;;;;;5082765;28;20285;-75
2022/09/15 21:56:45;;;;;;;5.33;2.90;;;;;;;;;;5079984;28;20191;-77
2022/09/15 21:59:11;;;;;;;5.87;2.93;;;;;;;;;;5080666;28;20262;-75
2022/09/15 22:01:39;;;;;;;5.53;3.17;;;;;;;;;;5081763;28;20264;-73
2022/09/15 22:04:06;;;;;;;3.70;2.90;;;;;;;;;;5081699;28;21003;-74
2022/09/15 22:06:34;;;;;;;4.77;2.70;;;;;;;;;;5081339;28;20179;-75
2022/09/15 22:09:01;;;;;;;3.30;2.63;;;;;;;;;;5066548;28;20734;-75
2022/09/15 22:11:27;;;;;;;4.83;2.53;;;;;;;;;;5082070;28;20255;-74
2022/09/15 22:13:54;;;;;;;3.97;2.50;;;;;;;;;;5082436;28;20192;-75
2022/09/15 22:16:21;;;;;;;5.00;2.50;;;;;;;;;;5086339;28;20272;-75
2022/09/15 22:18:48;;;;;;;6.33;2.60;;;;;;;;;;5084950;28;20356;-73
2022/09/15 22:21:16;;;;;;;3.43;2.27;;;;;;;;;;5080285;28;20180;-73
2022/09/15 22:23:42;;;;;;;3.13;2.20;;;;;;;;;;5077275;28;20238;-73
2022/09/15 22:26:11;;;;;;;4.40;2.27;;;;;;;;;;5083361;28;20173;-74
2022/09/15 22:28:37;;;;;;;3.17;2.17;;;;;;;;;;5086105;28;20182;-73
2022/09/15 22:31:04;;;;;;;2.73;2.20;;;;;;;;;;5080304;28;20222;-79
2022/09/15 22:33:31;;;;;;;3.27;2.37;;;;;;;;;;5078167;28;20273;-75
2022/09/15 22:35:57;;;;;;;5.90;2.30;;;;;;;;;;5078679;28;20297;-76
2022/09/15 22:38:24;;;;;;;4.23;2.33;;;;;;;;;;5079067;28;20227;-75
2022/09/15 22:40:50;;;;;;;3.13;2.13;;;;;;;;;;5079612;28;20187;-76
2022/09/15 22:43:16;;;;;;;2.07;1.87;;;;;;;;;;5081247;28;20859;-76
2022/09/15 22:45:43;;;;;;;3.40;1.80;;;;;;;;;;5078759;28;20229;-75
2022/09/15 22:48:09;;;;;;;5.93;2.00;;;;;;;;;;5082756;28;20184;-76
2022/09/15 22:50:35;;;;;;;4.20;2.00;;;;;;;;;;5082139;28;20353;-75
2022/09/15 22:53:01;;;;;;;2.03;1.83;;;;;;;;;;5076494;28;20740;-75
2022/09/15 22:55:29;;;;;;;3.37;2.10;;;;;;;;;;5085318;28;20180;-75
2022/09/15 22:57:55;;;;;;;2.47;2.00;;;;;;;;;;5079401;28;20285;-75
2022/09/15 23:00:22;;;;;;;4.33;1.90;;;;;;;;;;5078217;28;20196;-75
2022/09/15 23:02:48;;;;;;;3.03;1.70;;;;;;;;;;5083612;28;20185;-75
2022/09/15 23:05:15;;;;;;;2.33;1.70;;;;;;;;;;5078797;28;20210;-75
2022/09/15 23:07:41;;;;;;;2.10;1.63;;;;;;;;;;5080547;28;20727;-75
2022/09/15 23:10:07;;;;;;;3.23;1.90;;;;;;;;;;5082763;28;20638;-76
2022/09/15 23:12:33;;;;;;;3.20;1.87;;;;;;;;;;5084721;28;20187;-74
2022/09/15 23:15:03;;;;;;;2.40;1.77;;;;;;;;;;5087371;28;20181;-75
2022/09/15 23:17:35;;;;;;;2.40;1.80;;;;;;;;;;5065875;28;20173;-75
2022/09/15 23:20:02;;;;;;;2.53;1.80;;;;;;;;;;5082855;28;20269;-75
2022/09/15 23:22:28;;;;;;;2.60;1.70;;;;;;;;;;5087603;28;20180;-75
2022/09/15 23:24:55;;;;;;;2.70;1.83;;;;;;;;;;5085560;28;20312;-75
2022/09/15 23:27:21;;;;;;;3.33;2.00;;;;;;;;;;5085326;28;20188;-75
2022/09/15 23:29:47;;;;;;;3.30;1.70;;;;;;;;;;5082013;28;20207;-75
2022/09/15 23:32:13;;;;;;;3.00;1.70;;;;;;;;;;5085508;28;20290;-75
2022/09/15 23:34:39;;;;;;;3.37;1.60;;;;;;;;;;5085367;28;20188;-76
2022/09/15 23:37:05;;;;;;;2.73;1.70;;;;;;;;;;5080055;28;20236;-75
2022/09/15 23:39:32;;;;;;;3.30;1.80;;;;;;;;;;5085158;28;20755;-75
2022/09/15 23:41:58;;;;;;;3.73;1.50;;;;;;;;;;5086878;28;20184;-75
2022/09/15 23:44:24;;;;;;;2.00;1.80;;;;;;;;;;5085536;28;21067;-75
2022/09/15 23:46:50;;;;;;;2.43;1.80;;;;;;;;;;5086511;28;20267;-75
2022/09/15 23:49:16;;;;;;;3.10;1.90;;;;;;;;;;5088938;28;20750;-75
2022/09/15 23:51:42;;;;;;;3.17;2.10;;;;;;;;;;5083698;28;20192;-75
2022/09/15 23:54:08;;;;;;;3.47;2.10;;;;;;;;;;5082403;28;20177;-75
2022/09/15 23:56:35;;;;;;;3.70;2.13;;;;;;;;;;5083475;28;20189;-75
2022/09/15 23:59:01;;;;;;;5.20;2.10;;;;;;;;;;5083017;28;20208;-75
